createdAt,value
2019-02-16T18:45:33.140Z,43.33
2019-02-16T18:48:33.375Z,46.10
2019-02-16T18:51:27.682Z,59.90
2019-02-16T18:54:06.636Z,59.73
2019-02-16T18:56:43.889Z,60.03
2019-02-16T18:59:30.581Z,46.23
2019-02-16T19:02:19.287Z,38.67
2019-02-16T19:05:09.070Z,39.67
2019-02-16T19:07:52.889Z,37.83
2019-02-16T19:10:31.993Z,33.87
2019-02-16T19:13:18.272Z,29.07
2019-02-16T19:16:09.414Z,38.43
2019-02-16T19:19:01.134Z,30.67
2019-02-16T19:21:47.296Z,30.23
2019-02-16T19:24:29.419Z,33.83
2019-02-16T19:27:16.663Z,32.00
2019-02-16T19:30:04.710Z,36.00
2019-02-16T19:32:46.860Z,34.17
2019-02-16T19:35:44.475Z,28.03
2019-02-16T19:38:44.346Z,35.63
2019-02-16T19:41:27.145Z,31.77
2019-02-16T19:44:10.435Z,42.17
2019-02-16T19:46:59.616Z,37.73
2019-02-16T19:49:39.264Z,41.40
2019-02-16T19:52:22.776Z,45.90
2019-02-16T19:55:25.966Z,44.73
2019-02-16T19:58:13.182Z,90.67
2019-02-16T20:01:07.320Z,59.33
2019-02-16T20:03:49.140Z,37.63
2019-02-16T20:06:24.284Z,42.83
2019-02-16T20:09:12.976Z,42.07
2019-02-16T20:12:04.263Z,45.83
2019-02-16T20:14:55.773Z,50.93
2019-02-16T20:17:46.860Z,41.30
2019-02-16T20:20:27.376Z,47.27
2019-02-16T20:23:24.601Z,45.27
2019-02-16T20:26:15.980Z,39.93
2019-02-16T20:28:59.523Z,37.03
2019-02-16T20:31:54.023Z,37.60
2019-02-16T20:34:44.972Z,39.70
2019-02-16T20:37:33.436Z,34.47
2019-02-16T20:40:17.230Z,30.17
2019-02-16T20:43:05.791Z,33.83
2019-02-16T20:45:41.085Z,33.03
2019-02-16T20:48:47.570Z,35.63
2019-02-16T20:51:31.231Z,41.67
2019-02-16T20:54:25.637Z,46.63
2019-02-16T20:57:22.868Z,30.63
2019-02-16T21:00:29.107Z,35.37
2019-02-16T21:03:16.063Z,33.67
2019-02-16T21:06:02.355Z,37.27
2019-02-16T21:08:47.379Z,33.03
2019-02-16T21:11:35.265Z,34.57
2019-02-16T21:14:23.607Z,36.93
2019-02-16T21:17:15.015Z,26.07
2019-02-16T21:19:54.783Z,34.30
2019-02-16T21:22:33.524Z,48.90
2019-02-16T21:25:25.910Z,37.80
2019-02-16T21:28:14.279Z,31.87
2019-02-16T21:31:08.454Z,32.03
2019-02-16T21:33:45.873Z,25.50
2019-02-16T21:36:23.699Z,35.10
2019-02-16T21:39:12.075Z,29.90
2019-02-16T21:42:06.717Z,28.67
2019-02-16T21:44:53.696Z,26.33
2019-02-16T21:47:40.409Z,27.97
2019-02-16T21:50:29.293Z,26.37
2019-02-16T21:53:29.553Z,23.43
2019-02-16T21:56:10.114Z,27.23
2019-02-16T21:58:57.001Z,24.30
2019-02-16T22:01:35.391Z,26.43
2019-02-16T22:04:19.479Z,25.40
2019-02-16T22:07:06.591Z,24.50
2019-02-16T22:10:00.703Z,28.87
2019-02-16T22:12:58.319Z,25.37
2019-02-16T22:15:27.705Z,67.63
2019-02-16T22:17:57.085Z,48.97
2019-02-16T22:20:26.491Z,30.00
2019-02-16T22:22:55.868Z,22.40
2019-02-16T22:25:25.305Z,26.97
2019-02-16T22:27:54.703Z,19.23
2019-02-16T22:30:24.208Z,25.23
2019-02-16T22:32:53.631Z,18.10
2019-02-16T22:35:23.068Z,24.17
2019-02-16T22:37:52.479Z,22.97
2019-02-16T22:40:21.797Z,25.63
2019-02-16T22:42:51.260Z,27.00
2019-02-16T22:45:20.716Z,24.93
2019-02-16T22:47:50.148Z,23.20
2019-02-16T22:50:20.025Z,42.00
2019-02-16T22:52:50.272Z,23.57
2019-02-16T22:55:20.370Z,23.23
2019-02-16T22:57:50.343Z,28.57
2019-02-16T23:00:37.962Z,24.70
2019-02-16T23:03:08.727Z,24.70
2019-02-16T23:05:38.682Z,25.57
2019-02-16T23:08:08.779Z,26.03
2019-02-16T23:10:38.936Z,21.60
2019-02-16T23:13:09.201Z,22.40
2019-02-16T23:15:39.143Z,21.73
2019-02-16T23:18:09.023Z,26.43
2019-02-16T23:20:38.391Z,20.43
2019-02-16T23:23:08.202Z,24.33
2019-02-16T23:25:38.065Z,20.47
2019-02-16T23:28:07.726Z,18.90
2019-02-16T23:30:37.635Z,19.40
2019-02-16T23:33:07.053Z,21.67
2019-02-16T23:35:36.448Z,22.13
2019-02-16T23:38:05.986Z,25.53
2019-02-16T23:40:35.382Z,19.23
2019-02-16T23:43:04.778Z,19.67
2019-02-16T23:45:34.220Z,20.63
2019-02-16T23:48:03.684Z,21.43
2019-02-16T23:50:33.074Z,21.87
2019-02-16T23:53:02.447Z,27.00
2019-02-16T23:55:31.871Z,23.80
2019-02-16T23:58:01.275Z,24.93
